Time;durP1;ratioP1;P1;durP2;ratioP2;P2;SDS_P1;SDS_P2;PMS_P1;PMS_P2;Temp;Humidity;BMP_temperature;BMP_pressure;BME280_temperature;BME280_humidity;BME280_pressure;Samples;Min_cycle;Max_cycle;Signal;HPM_P1;HPM_P2
2022/01/31 00:00:04;;;;;;;22.85;8.55;;;2.70;99.90;;;;;;5057395;28;20151;-74
2022/01/31 00:02:39;;;;;;;31.80;9.15;;;2.70;99.90;;;;;;5061869;28;20040;-74
2022/01/31 00:05:06;;;;;;;29.15;9.77;;;2.80;99.90;;;;;;5061676;28;20098;-74
2022/01/31 00:07:34;;;;;;;48.42;9.68;;;2.80;99.90;;;;;;5060209;28;20782;-75
2022/01/31 00:10:06;;;;;;;37.95;10.80;;;2.80;99.90;;;;;;5080549;28;20611;-75
2022/01/31 00:12:42;;;;;;;24.33;9.82;;;2.80;99.90;;;;;;5081920;28;20142;-74
2022/01/31 00:15:10;;;;;;;33.25;10.00;;;2.90;99.90;;;;;;5064175;28;20076;-74
2022/01/31 00:17:36;;;;;;;32.78;8.60;;;2.80;99.90;;;;;;5071001;28;20048;-75
2022/01/31 00:20:04;;;;;;;33.17;9.43;;;2.80;99.90;;;;;;5061998;28;20132;-74
2022/01/31 00:22:30;;;;;;;24.88;8.65;;;2.80;99.90;;;;;;5062276;28;20076;-74
2022/01/31 00:24:57;;;;;;;34.17;9.63;;;2.80;99.90;;;;;;5048260;28;20487;-74
2022/01/31 00:27:24;;;;;;;42.35;10.80;;;2.80;99.90;;;;;;5070930;28;20042;-74
2022/01/31 00:29:50;;;;;;;25.08;10.27;;;2.80;99.90;;;;;;5068180;28;20048;-74
2022/01/31 00:32:17;;;;;;;36.83;9.80;;;2.80;99.90;;;;;;5066211;28;20131;-74
2022/01/31 00:34:45;;;;;;;26.83;9.18;;;2.80;99.90;;;;;;5067927;28;20069;-74
2022/01/31 00:37:11;;;;;;;29.25;9.70;;;2.80;99.90;;;;;;5084475;28;20056;-76
2022/01/31 00:39:38;;;;;;;29.80;10.10;;;2.70;99.90;;;;;;5053974;28;20098;-76
2022/01/31 00:42:07;;;;;;;30.98;10.25;;;2.70;99.90;;;;;;5089834;28;20143;-76
2022/01/31 00:44:43;;;;;;;30.55;10.65;;;2.80;99.90;;;;;;5066482;28;20081;-75
2022/01/31 00:47:22;;;;;;;26.90;10.85;;;2.80;99.90;;;;;;5075816;28;20143;-76
2022/01/31 00:50:13;;;;;;;30.38;9.80;;;2.80;99.90;;;;;;5067245;28;20059;-75
2022/01/31 00:52:40;;;;;;;28.42;11.77;;;2.80;99.90;;;;;;5066890;28;20078;-75
2022/01/31 00:55:09;;;;;;;27.98;10.60;;;2.80;99.90;;;;;;5068079;28;20055;-76
2022/01/31 00:57:36;;;;;;;28.52;11.02;;;2.80;99.90;;;;;;5084555;28;20090;-75
2022/01/31 01:00:05;;;;;;;30.25;11.88;;;2.80;99.90;;;;;;5068496;28;20579;-74
2022/01/31 01:02:32;;;;;;;31.85;11.35;;;2.80;99.90;;;;;;5046980;28;20053;-75
2022/01/31 01:05:00;;;;;;;27.65;11.90;;;2.70;99.90;;;;;;5087079;22;20048;31
2022/01/31 01:07:27;;;;;;;29.02;11.10;;;2.80;99.90;;;;;;5016135;28;20046;-77
2022/01/31 01:09:54;;;;;;;31.30;12.75;;;2.80;99.90;;;;;;5009569;28;20041;-78
2022/01/31 01:12:21;;;;;;;21.55;11.82;;;2.80;99.90;;;;;;5023093;28;20056;-78
2022/01/31 01:14:49;;;;;;;30.35;11.40;;;2.80;99.90;;;;;;5007354;28;20205;-78
2022/01/31 01:17:17;;;;;;;35.60;12.55;;;2.80;99.90;;;;;;5042555;28;20621;-78
2022/01/31 01:19:44;;;;;;;21.80;9.40;;;2.80;99.90;;;;;;5018960;28;20312;-78
2022/01/31 01:22:11;;;;;;;31.70;12.13;;;2.80;99.90;;;;;;5029378;28;20048;-78
2022/01/31 01:24:38;;;;;;;38.38;13.48;;;2.80;99.90;;;;;;5029305;28;20041;-77
2022/01/31 01:27:08;;;;;;;30.80;11.30;;;2.70;99.90;;;;;;5045910;28;20064;-78
2022/01/31 01:29:35;;;;;;;40.75;10.73;;;2.70;99.90;;;;;;5047307;28;20182;-77
2022/01/31 01:32:03;;;;;;;27.25;9.95;;;2.60;99.90;;;;;;5044169;28;20521;-78
2022/01/31 01:34:33;;;;;;;29.92;10.55;;;2.60;99.90;;;;;;5027284;28;20052;-77
2022/01/31 01:37:01;;;;;;;25.55;11.65;;;2.50;99.90;;;;;;5044439;28;20056;-77
2022/01/31 01:39:29;;;;;;;25.02;10.95;;;2.50;99.90;;;;;;5042503;28;20047;-77
2022/01/31 01:41:56;;;;;;;33.97;12.13;;;2.50;99.90;;;;;;5013813;28;20152;-77
2022/01/31 01:45:02;;;;;;;29.15;10.50;;;2.50;99.90;;;;;;5024595;28;20046;-77
2022/01/31 01:47:36;;;;;;;25.13;10.60;;;2.60;99.90;;;;;;4984496;28;20050;-79
2022/01/31 01:50:04;;;;;;;26.67;9.70;;;2.50;99.90;;;;;;5003986;28;20154;-79
2022/01/31 01:52:32;;;;;;;23.15;10.05;;;2.60;99.90;;;;;;4997928;28;20103;-79
2022/01/31 01:55:00;;;;;;;21.23;10.20;;;2.60;99.90;;;;;;5030697;28;20041;-78
2022/01/31 01:57:28;;;;;;;28.92;11.02;;;2.60;99.90;;;;;;5030164;28;20057;-78
2022/01/31 01:59:57;;;;;;;25.95;12.05;;;2.60;99.90;;;;;;5047112;28;20141;-78
2022/01/31 02:02:43;;;;;;;27.15;10.63;;;2.60;99.90;;;;;;5047081;28;20040;-78
2022/01/31 02:05:14;;;;;;;28.38;11.93;;;2.60;99.90;;;;;;5045208;28;20137;-78
2022/01/31 02:07:42;;;;;;;29.85;11.32;;;2.60;99.90;;;;;;5028859;28;20056;-78
2022/01/31 02:10:13;;;;;;;25.60;10.77;;;2.60;99.90;;;;;;5028824;28;20129;-78
2022/01/31 02:13:07;;;;;;;22.75;10.13;;;2.70;99.90;;;;;;5035087;28;20063;-77
2022/01/31 02:16:00;;;;;;;13.30;9.73;;;2.70;99.90;;;;;;5029266;28;20757;-77
2022/01/31 02:18:48;;;;;;;22.98;9.05;;;2.70;99.90;;;;;;5011958;28;20057;-77
2022/01/31 02:21:35;;;;;;;18.55;10.40;;;2.80;99.90;;;;;;5046046;28;20045;-78
2022/01/31 02:24:22;;;;;;;19.85;9.63;;;2.80;99.90;;;;;;5031999;28;20049;-78
2022/01/31 02:27:05;;;;;;;32.85;12.18;;;2.90;99.90;;;;;;5045279;28;20121;-77
2022/01/31 02:29:32;;;;;;;22.45;9.43;;;2.80;99.90;;;;;;5029013;28;20041;-78
2022/01/31 02:31:59;;;;;;;16.05;9.75;;;2.80;99.90;;;;;;5027273;28;20374;-78
2022/01/31 02:34:26;;;;;;;15.88;9.00;;;2.90;99.90;;;;;;5039778;28;20144;-78
2022/01/31 02:36:52;;;;;;;22.08;9.77;;;2.90;99.90;;;;;;5012090;28;20147;-78
2022/01/31 02:39:19;;;;;;;23.83;10.15;;;2.90;99.90;;;;;;5021663;28;20049;-77
2022/01/31 02:41:48;;;;;;;20.27;9.23;;;2.90;99.90;;;;;;5011814;28;20110;-77
2022/01/31 02:44:16;;;;;;;21.33;8.88;;;2.90;99.90;;;;;;5030036;28;20053;-78
2022/01/31 02:47:10;;;;;;;22.95;9.45;;;2.90;99.90;;;;;;5031244;28;20046;-78
2022/01/31 02:49:47;;;;;;;19.40;7.78;;;2.80;99.90;;;;;;4995178;28;20148;-77
2022/01/31 02:52:14;;;;;;;18.85;8.95;;;2.90;99.90;;;;;;5028403;28;20529;-77
2022/01/31 02:54:42;;;;;;;19.15;9.30;;;2.90;99.90;;;;;;5030575;28;20482;-78
2022/01/31 02:57:09;;;;;;;22.15;9.32;;;2.90;99.90;;;;;;5027659;28;20098;-77
2022/01/31 02:59:36;;;;;;;19.95;8.38;;;2.90;99.90;;;;;;5028999;28;20063;-78
2022/01/31 03:02:05;;;;;;;16.75;7.97;;;2.90;99.90;;;;;;5044155;28;20210;-78
2022/01/31 03:04:32;;;;;;;22.52;8.90;;;2.90;99.90;;;;;;5048240;28;20057;-78
2022/01/31 03:07:02;;;;;;;17.38;9.05;;;2.90;99.90;;;;;;5034553;28;20111;-77
2022/01/31 03:09:29;;;;;;;26.05;9.30;;;2.90;99.90;;;;;;5040482;28;20118;-78
2022/01/31 03:11:57;;;;;;;22.40;9.02;;;2.90;99.90;;;;;;5016403;28;20049;-77
2022/01/31 03:14:31;;;;;;;18.98;8.27;;;2.90;99.90;;;;;;5010106;28;20136;-78
2022/01/31 03:17:02;;;;;;;15.68;8.45;;;3.00;99.90;;;;;;5009429;28;20065;-77
2022/01/31 03:19:38;;;;;;;29.10;9.57;;;3.00;99.90;;;;;;5013573;28;20111;-77
2022/01/31 03:22:06;;;;;;;22.50;8.60;;;3.00;99.90;;;;;;5023991;28;20059;-78
2022/01/31 03:24:34;;;;;;;16.85;8.25;;;3.00;99.90;;;;;;5029958;28;20056;-78
2022/01/31 03:27:02;;;;;;;17.27;8.52;;;3.00;99.90;;;;;;5044036;28;20186;-78
2022/01/31 03:29:29;;;;;;;20.02;8.45;;;3.00;99.90;;;;;;5043845;28;20109;-77
2022/01/31 03:31:56;;;;;;;18.23;8.98;;;3.00;99.90;;;;;;5026289;28;20053;-77
2022/01/31 03:34:22;;;;;;;20.77;8.10;;;2.90;99.90;;;;;;5026227;28;20079;-78
2022/01/31 03:36:49;;;;;;;19.10;8.57;;;2.90;99.90;;;;;;5017816;28;20049;-77
2022/01/31 03:39:20;;;;;;;15.52;7.15;;;2.80;99.90;;;;;;5037849;28;20160;-78
2022/01/31 03:41:46;;;;;;;25.50;8.13;;;2.70;99.90;;;;;;5027623;28;20423;-77
2022/01/31 03:44:13;;;;;;;18.88;8.20;;;2.60;99.90;;;;;;5046429;28;20111;-78
2022/01/31 03:46:41;;;;;;;18.58;6.65;;;2.50;99.90;;;;;;5019483;28;20129;-78
2022/01/31 03:49:08;;;;;;;36.35;8.98;;;2.40;99.90;;;;;;5025381;28;20079;-78
2022/01/31 03:51:44;;;;;;;32.22;8.60;;;2.30;99.90;;;;;;5007434;28;20232;-77
2022/01/31 03:54:15;;;;;;;25.25;7.07;;;2.10;99.90;;;;;;5009225;28;20547;-77
2022/01/31 03:56:42;;;;;;;16.20;6.10;;;1.90;99.90;;;;;;5013920;28;20053;-77
2022/01/31 03:59:27;;;;;;;30.75;8.30;;;1.80;99.90;;;;;;5046930;28;20052;-77
2022/01/31 04:01:55;;;;;;;24.30;6.57;;;1.80;99.90;;;;;;5030508;28;20041;-77
2022/01/31 04:04:22;;;;;;;26.90;8.80;;;1.60;99.90;;;;;;5049295;28;20108;-77
2022/01/31 04:06:49;;;;;;;18.85;7.60;;;1.50;99.90;;;;;;5040210;28;20049;-77
2022/01/31 04:09:16;;;;;;;37.17;9.85;;;1.40;99.90;;;;;;5046808;28;20053;-77
2022/01/31 04:11:43;;;;;;;29.83;9.93;;;1.40;99.90;;;;;;5021766;28;20053;-77
2022/01/31 04:14:09;;;;;;;28.63;8.82;;;1.40;99.90;;;;;;5029690;28;20053;-76
2022/01/31 04:16:36;;;;;;;41.35;10.63;;;1.40;99.90;;;;;;5045217;28;20273;-76
2022/01/31 04:19:03;;;;;;;28.63;8.93;;;1.40;99.90;;;;;;5047203;28;20053;-76
2022/01/31 04:21:30;;;;;;;28.90;9.40;;;1.30;99.90;;;;;;5047154;28;20511;-76
2022/01/31 04:23:58;;;;;;;32.40;10.35;;;1.30;99.90;;;;;;5047208;28;20049;-76
2022/01/31 04:26:32;;;;;;;58.97;19.92;;;1.30;99.90;;;;;;5046340;28;20056;-76
2022/01/31 04:29:07;;;;;;;37.60;13.32;;;1.30;99.90;;;;;;5045227;28;20059;-75
2022/01/31 04:31:44;;;;;;;28.23;9.65;;;1.20;99.90;;;;;;5044520;28;20061;-76
2022/01/31 04:34:11;;;;;;;31.45;11.48;;;1.20;99.90;;;;;;5025354;28;20430;-75
2022/01/31 04:36:38;;;;;;;23.17;11.40;;;1.20;99.90;;;;;;5042234;28;20511;-75
2022/01/31 04:39:05;;;;;;;30.85;10.00;;;1.20;99.90;;;;;;5039962;28;20057;-76
2022/01/31 04:41:32;;;;;;;22.73;10.82;;;1.20;99.90;;;;;;5036183;28;20045;-76
2022/01/31 04:44:05;;;;;;;26.05;10.98;;;1.20;99.90;;;;;;5026647;28;20045;-75
2022/01/31 04:46:31;;;;;;;26.42;11.48;;;1.20;99.90;;;;;;5043181;28;20503;-76
2022/01/31 04:48:58;;;;;;;20.98;10.10;;;1.20;99.90;;;;;;5041466;28;20500;-76
2022/01/31 04:51:25;;;;;;;24.48;10.15;;;1.20;99.90;;;;;;5042882;28;20059;-76
2022/01/31 04:53:51;;;;;;;14.80;8.43;;;1.20;99.90;;;;;;5031643;28;20049;-76
2022/01/31 04:56:19;;;;;;;17.73;8.75;;;1.30;99.90;;;;;;5006467;28;20466;-75
2022/01/31 04:58:46;;;;;;;15.45;6.68;;;1.20;99.90;;;;;;5033494;28;20135;-75
2022/01/31 05:01:12;;;;;;;16.17;6.57;;;1.30;99.90;;;;;;5019348;28;20041;-75
2022/01/31 05:03:41;;;;;;;13.45;6.60;;;1.30;99.90;;;;;;5040256;28;20045;-75
2022/01/31 05:06:08;;;;;;;12.55;6.25;;;1.30;99.90;;;;;;5039519;28;20288;-75
2022/01/31 05:08:36;;;;;;;20.70;7.05;;;1.30;99.90;;;;;;5030536;28;20139;-75
2022/01/31 05:11:07;;;;;;;11.18;6.75;;;1.30;99.90;;;;;;5033197;28;20071;-75
2022/01/31 05:13:37;;;;;;;10.55;5.65;;;1.30;99.90;;;;;;5043597;28;20057;-74
2022/01/31 05:16:04;;;;;;;16.10;6.32;;;1.30;99.90;;;;;;5042943;28;20175;-74
2022/01/31 05:18:32;;;;;;;12.10;6.75;;;1.30;99.90;;;;;;5043279;28;20363;-74
2022/01/31 05:21:00;;;;;;;17.98;7.10;;;1.30;99.90;;;;;;5041101;28;20315;-73
2022/01/31 05:23:26;;;;;;;15.93;6.35;;;1.30;99.90;;;;;;5025834;28;20056;-74
2022/01/31 05:25:53;;;;;;;10.48;5.38;;;1.30;99.90;;;;;;5039955;28;20037;-74
2022/01/31 05:28:20;;;;;;;20.13;7.20;;;1.30;99.90;;;;;;5042763;28;20053;-74
2022/01/31 05:30:47;;;;;;;10.15;5.60;;;1.20;99.90;;;;;;5016066;28;20055;-74
2022/01/31 05:33:13;;;;;;;12.57;6.10;;;1.20;99.90;;;;;;5041650;28;20056;-74
2022/01/31 05:35:40;;;;;;;11.25;5.82;;;1.30;99.90;;;;;;5042870;28;20221;-74
2022/01/31 05:38:06;;;;;;;9.45;5.85;;;1.30;99.90;;;;;;5042683;28;20147;-73
2022/01/31 05:40:33;;;;;;;10.43;6.35;;;1.40;99.90;;;;;;5040227;28;20236;-74
2022/01/31 05:43:00;;;;;;;6.25;4.63;;;1.40;99.90;;;;;;5042841;28;20507;-74
2022/01/31 05:45:27;;;;;;;7.43;4.68;;;1.50;99.90;;;;;;5042375;28;20053;-73
2022/01/31 05:47:53;;;;;;;12.13;6.00;;;1.60;99.90;;;;;;5042236;28;20037;-73
2022/01/31 05:50:20;;;;;;;10.25;6.40;;;1.70;99.90;;;;;;5023326;28;20055;-73
2022/01/31 05:52:47;;;;;;;8.90;5.38;;;1.80;99.90;;;;;;5045466;28;20056;-74
2022/01/31 05:55:14;;;;;;;7.63;5.57;;;1.80;99.90;;;;;;5041611;28;20053;-73
2022/01/31 05:57:44;;;;;;;9.82;5.03;;;1.80;99.90;;;;;;5040683;28;20053;-74
2022/01/31 06:00:11;;;;;;;10.23;6.57;;;1.90;99.90;;;;;;5039589;28;20411;-73
2022/01/31 06:02:39;;;;;;;11.50;7.20;;;1.90;99.90;;;;;;5032877;28;20107;-74
2022/01/31 06:05:08;;;;;;;13.80;9.05;;;1.90;99.90;;;;;;5024255;28;20083;-74
2022/01/31 06:07:35;;;;;;;15.75;8.32;;;2.00;99.90;;;;;;5038977;28;20045;-74
2022/01/31 06:10:02;;;;;;;14.20;9.85;;;2.00;99.90;;;;;;5031926;28;20292;-74
2022/01/31 06:12:30;;;;;;;16.63;10.65;;;2.00;99.90;;;;;;5040404;28;20081;-75
2022/01/31 06:14:57;;;;;;;18.83;11.18;;;2.00;99.90;;;;;;5024747;28;20049;-74
2022/01/31 06:17:23;;;;;;;26.23;14.75;;;2.10;99.90;;;;;;5023413;28;20525;-75
2022/01/31 06:19:50;;;;;;;22.10;11.82;;;2.10;99.90;;;;;;5041242;28;20149;-75
2022/01/31 06:22:17;;;;;;;23.65;13.18;;;2.20;99.90;;;;;;5022086;28;20594;-76
2022/01/31 06:24:43;;;;;;;26.70;14.18;;;2.10;99.90;;;;;;5023541;28;20071;-75
2022/01/31 06:27:22;;;;;;;30.00;16.23;;;2.10;99.90;;;;;;5040439;28;20649;-74
2022/01/31 06:29:48;;;;;;;32.50;17.55;;;2.20;99.90;;;;;;5039712;28;20056;-75
2022/01/31 06:32:26;;;;;;;34.15;17.80;;;2.20;99.90;;;;;;5027855;28;20329;-75
2022/01/31 06:34:54;;;;;;;29.45;17.10;;;2.30;99.90;;;;;;4988185;28;20432;-75
2022/01/31 06:37:21;;;;;;;36.25;18.88;;;2.30;99.90;;;;;;5003431;28;20069;-75
2022/01/31 06:39:47;;;;;;;39.75;19.85;;;2.40;99.90;;;;;;5022307;28;20041;-75
2022/01/31 06:42:15;;;;;;;31.98;16.98;;;2.40;99.90;;;;;;5040344;28;20043;-74
2022/01/31 06:44:41;;;;;;;33.67;18.88;;;2.40;99.90;;;;;;5039562;28;20535;-75
2022/01/31 06:47:08;;;;;;;44.30;22.63;;;2.50;99.90;;;;;;4998374;28;20132;-75
2022/01/31 06:49:35;;;;;;;45.65;22.58;;;2.50;99.90;;;;;;5017683;28;20079;-75
2022/01/31 06:52:02;;;;;;;47.55;22.65;;;2.60;99.90;;;;;;5006768;28;20136;-75
2022/01/31 06:54:29;;;;;;;34.53;17.08;;;2.60;99.90;;;;;;5036706;28;20594;-76
2022/01/31 06:57:14;;;;;;;;;;;2.60;99.90;;;;;;5023802;28;20557;-75
2022/01/31 06:59:41;;;;;;;38.47;18.92;;;2.60;99.90;;;;;;5043164;28;20328;-76
2022/01/31 07:02:07;;;;;;;44.13;20.15;;;2.60;99.90;;;;;;5051793;28;20036;-76
2022/01/31 07:04:34;;;;;;;51.35;24.00;;;2.70;99.90;;;;;;5023595;28;20056;-76
2022/01/31 07:07:03;;;;;;;51.85;24.00;;;2.70;99.90;;;;;;5061865;22;20569;-76
2022/01/31 07:09:29;;;;;;;49.17;25.15;;;2.70;99.90;;;;;;5036682;28;20672;-78
2022/01/31 07:11:59;;;;;;;44.90;22.88;;;2.70;99.90;;;;;;5042963;28;20483;-75
2022/01/31 07:14:32;;;;;;;50.35;23.38;;;2.70;99.90;;;;;;5022793;28;20146;-75
2022/01/31 07:17:05;;;;;;;47.55;20.40;;;2.80;99.90;;;;;;5014372;28;20530;-75
2022/01/31 07:19:35;;;;;;;44.00;23.58;;;2.80;99.90;;;;;;5055863;28;20057;-75
2022/01/31 07:22:06;;;;;;;39.00;17.98;;;2.80;99.90;;;;;;5043293;28;20092;-75
2022/01/31 07:27:04;;;;;;;43.83;20.65;;;2.80;99.90;;;;;;5059976;28;20131;-75
2022/01/31 07:29:31;;;;;;;37.33;20.23;;;2.80;99.90;;;;;;5041963;28;20490;-75
2022/01/31 07:31:58;;;;;;;41.28;19.48;;;2.90;99.90;;;;;;5059498;28;20105;-75
2022/01/31 07:34:25;;;;;;;44.53;20.73;;;2.80;99.90;;;;;;5060051;28;20703;-76
2022/01/31 07:36:53;;;;;;;42.97;16.33;;;2.80;99.90;;;;;;5043098;28;20044;-75
2022/01/31 07:39:20;;;;;;;29.58;15.02;;;2.80;99.90;;;;;;5031201;28;20056;-75
2022/01/31 07:41:48;;;;;;;30.40;12.45;;;2.80;99.90;;;;;;5034226;28;20044;-77
2022/01/31 07:44:16;;;;;;;24.83;12.52;;;2.80;99.90;;;;;;5042164;28;20088;-77
2022/01/31 07:46:43;;;;;;;28.40;12.85;;;2.80;99.90;;;;;;5046958;28;20051;-78
2022/01/31 07:49:10;;;;;;;35.63;13.55;;;2.80;99.90;;;;;;5045540;28;20083;-79
2022/01/31 07:51:40;;;;;;;28.40;11.85;;;2.80;99.90;;;;;;5046370;28;20133;-80
2022/01/31 07:54:08;;;;;;;21.38;9.93;;;2.80;99.90;;;;;;5067013;28;20436;-81
2022/01/31 07:56:35;;;;;;;19.27;10.45;;;2.80;99.90;;;;;;5053386;28;20048;-82
2022/01/31 07:59:02;;;;;;;25.02;11.07;;;2.90;99.90;;;;;;5087630;28;20281;-82
2022/01/31 08:01:29;;;;;;;24.17;10.82;;;2.80;99.90;;;;;;5068135;28;20068;-82
2022/01/31 08:03:56;;;;;;;22.23;10.27;;;2.90;99.90;;;;;;5069051;28;20037;-81
2022/01/31 08:06:22;;;;;;;22.35;9.50;;;2.80;99.90;;;;;;5065527;28;20071;-82
2022/01/31 08:08:50;;;;;;;21.40;11.18;;;2.80;99.90;;;;;;5048277;28;20041;-82
2022/01/31 08:11:17;;;;;;;18.52;9.35;;;2.90;99.90;;;;;;5033344;28;20044;-84
2022/01/31 08:13:44;;;;;;;17.55;8.25;;;2.90;99.90;;;;;;5039209;28;20080;-84
2022/01/31 08:16:13;;;;;;;22.77;8.43;;;2.90;99.90;;;;;;5038075;28;20076;-82
2022/01/31 08:18:42;;;;;;;22.08;8.07;;;2.80;99.90;;;;;;5060297;28;20047;-82
2022/01/31 08:21:12;;;;;;;24.00;8.48;;;2.90;99.90;;;;;;5046880;28;20036;-80
2022/01/31 08:23:40;;;;;;;17.88;7.50;;;2.80;99.90;;;;;;5080699;28;20044;-81
2022/01/31 08:26:14;;;;;;;15.73;7.75;;;2.80;99.90;;;;;;5056582;28;20102;-81
2022/01/31 08:28:53;;;;;;;17.30;7.57;;;2.80;99.90;;;;;;5042853;28;20143;-81
2022/01/31 08:31:28;;;;;;;17.67;8.52;;;2.80;99.90;;;;;;5043489;28;20046;-80
2022/01/31 08:36:26;;;;;;;18.48;6.60;;;2.70;99.90;;;;;;5027968;28;20048;-80
2022/01/31 08:38:54;;;;;;;13.43;6.15;;;2.70;99.90;;;;;;5039444;28;20456;-77
2022/01/31 08:41:21;;;;;;;14.38;7.53;;;2.70;99.90;;;;;;5050688;28;20054;-77
2022/01/31 08:43:48;;;;;;;13.45;7.88;;;2.70;99.90;;;;;;5053405;28;20079;-79
2022/01/31 08:46:15;;;;;;;17.08;9.85;;;2.70;99.90;;;;;;5054938;28;20055;-80
2022/01/31 08:48:43;;;;;;;11.23;6.30;;;2.80;99.90;;;;;;5053817;28;20663;-80
2022/01/31 08:51:11;;;;;;;24.75;11.80;;;2.70;99.90;;;;;;5045370;28;20068;-80
2022/01/31 08:53:39;;;;;;;27.23;13.30;;;2.70;99.90;;;;;;5032990;28;20052;-80
2022/01/31 08:56:12;;;;;;;21.00;11.63;;;2.70;99.90;;;;;;5048590;28;20117;-81
2022/01/31 08:58:48;;;;;;;29.05;13.70;;;2.80;99.90;;;;;;5090019;28;20051;-80
2022/01/31 09:01:22;;;;;;;23.70;13.30;;;2.80;99.90;;;;;;5055896;28;20094;-81
2022/01/31 09:06:22;;;;;;;28.00;13.00;;;2.90;99.90;;;;;;5058311;28;20044;-80
2022/01/31 09:08:49;;;;;;;24.13;12.98;;;2.90;99.90;;;;;;5038838;28;20052;-80
2022/01/31 09:11:16;;;;;;;25.05;13.27;;;2.90;99.90;;;;;;5070684;28;20064;-79
2022/01/31 09:13:43;;;;;;;25.73;13.35;;;3.00;99.90;;;;;;5056985;28;20049;-79
2022/01/31 09:16:10;;;;;;;23.27;13.85;;;3.00;99.90;;;;;;5049031;28;20113;-79
2022/01/31 09:18:37;;;;;;;26.00;15.02;;;3.00;99.90;;;;;;5056828;28;20052;-79
2022/01/31 09:21:04;;;;;;;30.42;17.45;;;3.00;99.90;;;;;;5073501;28;20113;-80
2022/01/31 09:23:31;;;;;;;26.50;15.32;;;3.00;99.90;;;;;;5084720;28;20048;-79
2022/01/31 09:25:59;;;;;;;28.27;15.02;;;3.00;99.90;;;;;;5065447;28;20064;-79
2022/01/31 09:28:26;;;;;;;23.30;14.25;;;2.90;99.90;;;;;;5036375;28;20045;-80
2022/01/31 09:30:54;;;;;;;22.92;13.98;;;3.00;99.90;;;;;;5036015;28;20064;-80
2022/01/31 09:33:25;;;;;;;21.35;13.43;;;3.00;99.90;;;;;;5052935;28;20553;-79
2022/01/31 09:35:52;;;;;;;29.45;12.93;;;2.90;99.90;;;;;;5054014;28;20036;-79
2022/01/31 09:38:23;;;;;;;22.02;13.18;;;3.00;99.90;;;;;;5052753;28;20139;-80
2022/01/31 09:40:54;;;;;;;22.38;13.85;;;2.90;99.90;;;;;;5039420;28;20515;-79
2022/01/31 09:48:51;;;;;;;14.55;9.02;;;2.80;99.90;;;;;;5065107;28;20033;-79
2022/01/31 09:51:20;;;;;;;14.02;8.48;;;2.70;99.90;;;;;;5062452;28;20048;-78
2022/01/31 09:53:55;;;;;;;13.63;8.25;;;2.60;99.90;;;;;;5065235;28;20464;-78
2022/01/31 09:56:29;;;;;;;15.43;7.80;;;2.60;99.90;;;;;;5034041;28;20055;-78
2022/01/31 09:58:57;;;;;;;17.63;10.02;;;2.60;99.90;;;;;;5090965;28;20079;-77
2022/01/31 10:01:30;;;;;;;13.68;8.45;;;2.60;99.90;;;;;;5069742;28;20074;-77
2022/01/31 10:04:04;;;;;;;16.63;10.10;;;2.60;99.90;;;;;;5067302;28;20480;-77
2022/01/31 10:06:36;;;;;;;18.40;11.25;;;2.60;99.90;;;;;;5056855;28;20041;-77
2022/01/31 10:09:06;;;;;;;20.30;12.18;;;2.70;99.90;;;;;;5056198;28;20045;-76
2022/01/31 10:11:41;;;;;;;26.58;15.48;;;2.70;99.90;;;;;;5063278;28;20492;-77
2022/01/31 10:16:57;;;;;;;18.52;12.00;;;2.70;99.90;;;;;;5063883;28;20044;-76
2022/01/31 10:19:44;;;;;;;27.17;17.48;;;2.80;99.90;;;;;;5045937;28;20047;-75
2022/01/31 10:22:14;;;;;;;25.60;14.00;;;2.80;99.90;;;;;;5045306;28;20044;-75
2022/01/31 10:24:45;;;;;;;18.30;11.88;;;2.80;99.90;;;;;;5053948;28;20049;-75
2022/01/31 10:27:22;;;;;;;22.13;12.65;;;2.80;99.90;;;;;;5063598;28;20069;-75
2022/01/31 10:29:52;;;;;;;21.60;14.77;;;2.80;99.90;;;;;;5026130;28;20072;-75
2022/01/31 10:32:28;;;;;;;20.95;14.00;;;2.90;99.90;;;;;;5024848;28;20049;-74
2022/01/31 10:34:59;;;;;;;21.58;14.40;;;2.80;99.90;;;;;;5043825;28;20172;-75
2022/01/31 10:37:29;;;;;;;24.40;15.63;;;2.90;99.90;;;;;;5043047;28;20518;-75
2022/01/31 10:53:47;;;;;;;21.63;13.70;;;2.90;99.90;;;;;;5045952;28;20060;-73
2022/01/31 10:56:16;;;;;;;19.38;13.18;;;2.80;99.90;;;;;;5045418;28;20052;-73
2022/01/31 10:58:55;;;;;;;22.25;12.55;;;2.90;99.90;;;;;;5046603;28;20408;-73
2022/01/31 11:01:22;;;;;;;24.65;17.23;;;2.90;99.90;;;;;;5067435;28;20545;-74
2022/01/31 11:03:50;;;;;;;26.30;16.52;;;2.90;99.90;;;;;;5065034;28;20040;-74
2022/01/31 11:06:17;;;;;;;23.08;13.40;;;2.90;99.90;;;;;;5058131;28;20102;-74
2022/01/31 11:08:44;;;;;;;16.52;11.27;;;2.90;99.90;;;;;;5062719;28;20452;-74
2022/01/31 11:11:11;;;;;;;18.00;12.38;;;2.90;99.90;;;;;;5069730;28;20477;-74
2022/01/31 11:13:38;;;;;;;27.67;12.57;;;2.90;99.90;;;;;;5018940;28;20488;-74
2022/01/31 11:16:06;;;;;;;16.10;10.30;;;3.00;99.90;;;;;;5041795;28;20054;-73
2022/01/31 11:18:35;;;;;;;17.23;10.52;;;3.00;99.90;;;;;;5063105;28;20055;-74
2022/01/31 11:21:05;;;;;;;14.63;9.80;;;3.00;99.90;;;;;;5064152;28;20068;-74
2022/01/31 11:23:38;;;;;;;15.90;10.32;;;3.00;99.90;;;;;;5060224;28;20039;-74
2022/01/31 11:26:08;;;;;;;16.35;8.45;;;3.10;99.90;;;;;;5060377;28;20040;-74
2022/01/31 11:28:39;;;;;;;15.57;8.05;;;3.00;99.90;;;;;;5058175;28;20114;-74
2022/01/31 11:31:06;;;;;;;13.75;7.85;;;3.10;99.90;;;;;;5043004;28;20044;-74
2022/01/31 11:33:37;;;;;;;14.77;7.78;;;3.10;99.90;;;;;;5043334;28;20143;-74
2022/01/31 11:36:03;;;;;;;13.60;8.30;;;3.20;99.90;;;;;;5042106;28;20143;-75
2022/01/31 11:38:33;;;;;;;14.20;7.50;;;3.20;99.90;;;;;;5060889;28;20048;-74
2022/01/31 11:41:04;;;;;;;11.48;6.57;;;3.20;99.90;;;;;;5039505;28;20139;-74
2022/01/31 11:43:32;;;;;;;9.38;6.07;;;3.30;99.90;;;;;;5058805;28;20057;-73
2022/01/31 11:46:00;;;;;;;8.98;5.90;;;3.30;99.90;;;;;;5034663;28;20248;-74
2022/01/31 11:48:30;;;;;;;6.18;4.43;;;3.40;99.90;;;;;;5041874;28;20086;-74
2022/01/31 11:50:59;;;;;;;5.18;3.38;;;3.40;99.90;;;;;;5060695;28;20064;-74
2022/01/31 11:53:37;;;;;;;6.38;4.30;;;3.40;99.90;;;;;;5060381;28;20049;-74
2022/01/31 11:56:24;;;;;;;9.23;4.53;;;3.40;99.90;;;;;;5060907;28;20048;-73
2022/01/31 11:58:53;;;;;;;6.40;3.92;;;3.50;99.90;;;;;;5060872;28;20591;-74
2022/01/31 12:01:21;;;;;;;8.15;4.95;;;3.50;99.90;;;;;;5048468;28;20055;-74
2022/01/31 12:04:00;;;;;;;9.20;5.10;;;3.50;99.90;;;;;;5080680;28;20044;-73
2022/01/31 12:06:35;;;;;;;6.78;3.60;;;3.60;99.90;;;;;;5053850;28;20128;-74
2022/01/31 12:09:12;;;;;;;8.45;4.20;;;3.50;99.90;;;;;;5061197;28;20478;-74
2022/01/31 12:12:04;;;;;;;8.15;4.35;;;3.60;99.90;;;;;;5057052;28;20464;-74
2022/01/31 12:14:50;;;;;;;5.32;3.72;;;3.60;99.90;;;;;;5060543;28;20445;-74
2022/01/31 12:18:04;;;;;;;7.32;4.22;;;3.70;99.90;;;;;;5051344;28;21963;-74
2022/01/31 12:23:51;;;;;;;4.85;3.33;;;3.60;99.90;;;;;;5023449;28;20047;-74
2022/01/31 12:26:32;;;;;;;7.53;4.80;;;3.70;99.90;;;;;;5084453;28;20282;-73
2022/01/31 12:29:13;;;;;;;6.05;3.80;;;3.70;99.90;;;;;;5066741;28;20052;-74
2022/01/31 12:31:55;;;;;;;5.95;4.20;;;3.80;99.90;;;;;;5038469;28;20067;-74
2022/01/31 12:34:22;;;;;;;6.93;4.63;;;3.80;99.90;;;;;;5048992;28;20136;-73
2022/01/31 12:36:55;;;;;;;8.38;5.30;;;3.80;99.90;;;;;;5039557;28;20037;-73
2022/01/31 12:39:28;;;;;;;10.85;5.68;;;3.80;99.90;;;;;;5055520;28;20047;-73
2022/01/31 12:45:53;;;;;;;8.32;4.75;;;4.00;99.90;;;;;;5018283;28;20252;-74
2022/01/31 12:48:23;;;;;;;10.20;5.82;;;3.90;99.90;;;;;;5042997;28;20302;-73
2022/01/31 12:50:53;;;;;;;11.23;5.40;;;4.00;99.90;;;;;;5033085;28;20101;-74
2022/01/31 12:53:22;;;;;;;11.15;6.18;;;4.00;99.90;;;;;;5084695;28;20075;-73
2022/01/31 12:56:06;;;;;;;10.20;5.47;;;4.00;99.90;;;;;;5065818;28;20079;-74
2022/01/31 12:58:46;;;;;;;9.20;6.05;;;4.00;99.90;;;;;;5063198;28;20071;-74
2022/01/31 13:01:20;;;;;;;8.52;5.03;;;4.10;99.90;;;;;;5023229;28;20056;-74
2022/01/31 13:03:51;;;;;;;11.70;6.40;;;4.00;99.90;;;;;;5043562;28;20472;-74
2022/01/31 13:06:37;;;;;;;12.80;6.55;;;4.00;99.90;;;;;;5054305;22;20045;-71
2022/01/31 13:09:11;;;;;;;7.63;5.68;;;4.10;99.90;;;;;;5035622;28;20045;-71
2022/01/31 13:11:41;;;;;;;9.88;5.63;;;4.10;99.90;;;;;;5022586;28;20098;-71
2022/01/31 13:14:17;;;;;;;10.48;5.75;;;4.30;99.90;;;;;;5051900;28;20510;-70
2022/01/31 13:17:08;;;;;;;10.65;6.28;;;4.30;99.90;;;;;;5039302;28;20363;-71
2022/01/31 13:19:41;;;;;;;8.18;6.03;;;4.20;99.90;;;;;;5039847;28;20140;-70
2022/01/31 13:22:17;;;;;;;11.32;7.55;;;4.20;99.90;;;;;;5055623;28;20268;-70
2022/01/31 13:24:47;;;;;;;11.93;5.90;;;4.20;99.90;;;;;;5033547;28;20083;-70
2022/01/31 13:27:18;;;;;;;12.88;6.53;;;4.30;99.90;;;;;;5056492;28;20075;-71
2022/01/31 13:30:09;;;;;;;15.77;7.32;;;4.20;99.90;;;;;;5028665;28;20117;-71
2022/01/31 13:32:38;;;;;;;10.68;7.18;;;4.20;99.90;;;;;;5042581;28;20098;-72
2022/01/31 13:35:17;;;;;;;16.60;8.18;;;4.20;99.90;;;;;;5061139;28;20487;-72